Terminal Aerodrome Forecast
Issued by NWS Binghamton, NY

Home | Current Version | Previous Version | Text Only | Print | Product List | Glossary On
Versions: 1 2 3 4 5 6 7 8 9 10 11 12 13 14 15
000
FTUS41 KBGM 062329
TAFSYR
TAF
KSYR 062329Z 0700/0724 17008KT P6SM SCT040 BKN250
     FM070200 17007KT P6SM BKN040 OVC200
     FM070800 18007KT 5SM BR OVC025
     FM071400 21007KT P6SM BKN050
     FM071900 23009KT P6SM SCT060=

USA.gov is the U.S. government's official web portal to all federal, state and local government web resources and services.